Time;durP1;ratioP1;P1;durP2;ratioP2;P2;SDS_P1;SDS_P2;PMS_P1;PMS_P2;Temp;Humidity;BMP_temperature;BMP_pressure;BME280_temperature;BME280_humidity;BME280_pressure;Samples;Min_cycle;Max_cycle;Signal;HPM_P1;HPM_P2
2022/09/01 00:02:14;;;;;;;5.53;1.80;;;;;;;14.63;61.63;101935.59;5113715;28;20261;-46
2022/09/01 00:04:42;;;;;;;6.50;1.98;;;;;;;14.57;62.38;101939.72;5113837;28;20031;-44
2022/09/01 00:07:07;;;;;;;;;;;;;;;14.72;59.97;101940.22;5113055;28;20527;-44
2022/09/01 00:09:33;;;;;;;5.63;1.98;;;;;;;14.55;62.42;101941.38;5113429;28;19916;-46
2022/09/01 00:12:00;;;;;;;6.53;2.10;;;;;;;14.46;63.71;101937.69;5113953;28;20060;-46
2022/09/01 00:14:28;;;;;;;6.90;1.83;;;;;;;14.42;63.88;101933.22;5112970;28;20020;-45
2022/09/01 00:16:54;;;;;;;3.63;1.63;;;;;;;14.39;64.34;101935.72;5113440;28;20031;-46
2022/09/01 00:19:20;;;;;;;5.45;1.95;;;;;;;14.40;64.71;101936.59;5113357;28;20069;-45
2022/09/01 00:21:46;;;;;;;4.68;2.17;;;;;;;14.39;65.01;101929.66;5112651;28;20110;-44
2022/09/01 00:24:15;;;;;;;3.80;2.10;;;;;;;14.30;65.53;101931.09;5113244;28;20059;-43
2022/09/01 00:26:40;;;;;;;8.07;2.33;;;;;;;14.25;65.98;101926.63;5113429;28;20110;-44
2022/09/01 00:29:06;;;;;;;5.05;1.95;;;;;;;14.22;66.55;101932.59;5112345;28;20107;-43
2022/09/01 00:31:32;;;;;;;6.43;2.22;;;;;;;14.18;66.96;101935.00;5113441;28;20016;-43
2022/09/01 00:33:57;;;;;;;2.78;1.70;;;;;;;14.12;67.32;101933.13;5113245;28;20030;-44
2022/09/01 00:36:23;;;;;;;5.53;2.00;;;;;;;14.11;67.61;101937.44;5112583;28;20023;-43
2022/09/01 00:38:49;;;;;;;5.93;1.92;;;;;;;13.99;68.36;101939.63;5113356;28;20098;-43
2022/09/01 00:41:18;;;;;;;5.70;2.10;;;;;;;13.90;68.87;101934.13;5112713;28;20036;-45
2022/09/01 00:43:45;;;;;;;5.85;2.17;;;;;;;13.87;69.09;101934.91;5112896;28;20031;-44
2022/09/01 00:46:15;;;;;;;4.27;2.10;;;;;;;13.83;69.47;101933.06;5113064;28;20023;-47
2022/09/01 00:48:41;;;;;;;6.60;2.60;;;;;;;13.76;69.85;101937.16;5113045;28;20280;-43
2022/09/01 00:51:08;;;;;;;7.70;2.50;;;;;;;13.68;70.36;101930.81;5112902;28;20479;-44
2022/09/01 00:53:36;;;;;;;5.68;2.20;;;;;;;13.75;70.45;101930.19;5113267;28;20421;-43
2022/09/01 00:56:04;;;;;;;5.38;2.30;;;;;;;13.63;71.09;101928.09;5112346;28;20085;-43
2022/09/01 00:58:30;;;;;;;4.90;2.50;;;;;;;13.64;71.34;101926.34;5113078;28;20035;-45
2022/09/01 01:00:55;;;;;;;6.18;2.00;;;;;;;13.61;71.50;101926.28;5114716;28;20026;-47
2022/09/01 01:03:20;;;;;;;4.35;2.33;;;;;;;13.59;71.55;101930.50;5116088;28;20027;-44
2022/09/01 01:05:53;;;;;;;7.90;2.30;;;;;;;13.54;71.89;101937.22;5117121;28;20024;-44
2022/09/01 01:08:33;;;;;;;4.82;2.20;;;;;;;13.46;72.46;101930.06;5116994;28;20039;-43
2022/09/01 01:11:05;;;;;;;7.50;2.40;;;;;;;13.41;72.63;101923.84;5116406;28;20046;-44
2022/09/01 01:13:34;;;;;;;8.05;2.45;;;;;;;13.36;73.00;101925.34;5117107;28;20084;-43
2022/09/01 01:16:02;;;;;;;4.53;2.47;;;;;;;13.29;73.14;101923.38;5116652;28;20028;-46
2022/09/01 01:18:27;;;;;;;7.15;2.67;;;;;;;13.34;73.42;101924.44;5116343;28;20030;-43
2022/09/01 01:24:21;;;;;;;3.67;2.67;;;;;;;13.22;73.23;101927.47;5117040;28;20075;-43
2022/09/01 01:26:46;;;;;;;8.05;2.40;;;;;;;13.11;74.64;101923.59;5110974;28;20043;-43
2022/09/01 01:29:13;;;;;;;5.13;2.80;;;;;;;13.11;74.61;101919.28;5116795;28;20023;-44
2022/09/01 01:31:39;;;;;;;6.13;2.47;;;;;;;13.08;75.02;101918.28;5115992;28;20103;-44
2022/09/01 01:34:06;;;;;;;6.80;2.50;;;;;;;13.04;75.30;101913.84;5116654;28;20102;-43
2022/09/01 01:36:35;;;;;;;4.68;2.58;;;;;;;12.95;75.59;101922.13;5116581;28;20024;-44
2022/09/01 01:39:05;;;;;;;4.70;2.28;;;;;;;12.90;76.13;101918.50;5115469;27;20050;-43
2022/09/01 01:41:32;;;;;;;5.07;2.50;;;;;;;12.89;75.95;101922.81;5116605;28;20047;-43
2022/09/01 01:44:03;;;;;;;6.18;2.80;;;;;;;12.97;76.15;101925.69;5116691;27;20028;-46
2022/09/01 01:46:29;;;;;;;4.18;2.50;;;;;;;12.88;76.45;101920.16;5115924;28;21911;-43
2022/09/01 01:48:55;;;;;;;6.72;2.25;;;;;;;12.82;76.43;101926.88;5116580;28;20031;-43
2022/09/01 01:51:27;;;;;;;6.65;3.00;;;;;;;12.80;76.79;101925.94;5115933;28;20022;-46
2022/09/01 01:53:54;;;;;;;7.72;2.95;;;;;;;12.90;76.84;101923.69;5115967;28;20027;-45
2022/09/01 01:56:24;;;;;;;6.00;2.90;;;;;;;12.90;77.02;101924.56;5116202;28;20020;-43
2022/09/01 01:58:54;;;;;;;5.43;2.60;;;;;;;12.90;77.09;101929.75;5116160;28;20034;-44
2022/09/01 02:01:23;;;;;;;9.38;2.83;;;;;;;12.87;77.29;101931.34;5115275;28;20413;-43
2022/09/01 02:03:51;;;;;;;5.60;2.72;;;;;;;12.86;77.33;101933.06;5116144;28;20031;-46
2022/09/01 02:06:23;;;;;;;13.88;2.55;;;;;;;12.87;77.51;101923.56;5114853;28;20036;-44
2022/09/01 02:08:49;;;;;;;8.00;2.65;;;;;;;12.80;77.76;101927.66;5116227;28;20088;-43
2022/09/01 02:11:16;;;;;;;6.70;3.08;;;;;;;12.78;77.73;101931.88;5115363;28;20020;-45
2022/09/01 02:13:41;;;;;;;7.10;2.80;;;;;;;12.88;78.02;101935.69;5114783;28;20023;-46
2022/09/01 02:16:11;;;;;;;6.45;2.85;;;;;;;12.81;78.10;101934.59;5115058;28;20027;-45
2022/09/01 02:18:40;;;;;;;3.60;2.35;;;;;;;12.79;78.26;101931.91;5115483;28;20027;-43
2022/09/01 02:21:09;;;;;;;6.10;3.05;;;;;;;12.81;77.87;101930.28;5114923;28;20072;-43
2022/09/01 02:23:37;;;;;;;8.65;2.75;;;;;;;12.83;78.27;101932.91;5115459;28;20585;-43
2022/09/01 02:26:05;;;;;;;;;;;;;;;12.94;74.81;101936.81;5115899;28;20115;-43
2022/09/01 02:28:33;;;;;;;5.97;2.85;;;;;;;12.70;78.36;101930.69;5114637;28;20312;-45
2022/09/01 02:31:01;;;;;;;4.82;2.70;;;;;;;12.68;78.74;101933.25;5115514;28;20016;-44
2022/09/01 02:33:27;;;;;;;5.57;2.97;;;;;;;12.71;78.61;101933.34;5114913;28;20097;-45
2022/09/01 02:36:02;;;;;;;5.38;2.83;;;;;;;12.65;78.55;101928.81;5114955;28;20038;-44
2022/09/01 02:38:28;;;;;;;6.97;3.00;;;;;;;12.62;79.09;101930.41;5114739;28;20032;-43
2022/09/01 02:40:55;;;;;;;6.15;2.85;;;;;;;12.55;79.12;101925.81;5113504;28;20043;-43
2022/09/01 02:43:21;;;;;;;4.60;2.70;;;;;;;12.65;79.11;101922.75;5112525;28;20034;-44
2022/09/01 02:45:54;;;;;;;6.65;3.20;;;;;;;12.66;79.20;101934.88;5112801;28;20026;-44
2022/09/01 02:48:34;;;;;;;5.75;2.75;;;;;;;12.60;79.41;101929.44;5114790;28;20043;-43
2022/09/01 02:51:01;;;;;;;4.45;2.85;;;;;;;12.44;79.87;101926.28;5115103;28;20025;-45
2022/09/01 02:53:27;;;;;;;6.22;2.83;;;;;;;12.44;79.89;101922.81;5114930;27;20040;-43
2022/09/01 02:55:57;;;;;;;6.25;3.35;;;;;;;12.44;80.25;101920.22;5114345;28;20026;-44
2022/09/01 02:58:23;;;;;;;6.50;3.25;;;;;;;12.29;80.63;101917.91;5114657;28;20386;-43
2022/09/01 03:00:55;;;;;;;7.90;3.22;;;;;;;12.28;80.95;101911.88;5114853;28;20391;-44
2022/09/01 03:03:20;;;;;;;6.07;3.13;;;;;;;12.25;80.52;101916.03;5113777;28;20031;-44
2022/09/01 03:05:46;;;;;;;9.55;3.25;;;;;;;12.18;81.02;101915.78;5115057;28;20019;-44
2022/09/01 03:08:14;;;;;;;8.25;3.83;;;;;;;12.06;81.37;101911.81;5114303;28;20031;-43
2022/09/01 03:10:41;;;;;;;6.25;3.33;;;;;;;12.01;81.24;101909.94;5114074;28;20467;-44
2022/09/01 03:13:16;;;;;;;6.90;3.17;;;;;;;12.03;81.00;101917.75;5114826;27;20034;-43
2022/09/01 03:15:42;;;;;;;6.07;3.00;;;;;;;12.06;81.16;101912.72;5114696;28;20094;-45
2022/09/01 03:18:10;;;;;;;8.52;3.35;;;;;;;12.02;81.34;101910.84;5113978;28;20542;-43
2022/09/01 03:20:38;;;;;;;6.38;3.10;;;;;;;12.07;80.89;101909.31;5114524;28;20027;-45
2022/09/01 03:23:07;;;;;;;5.95;3.10;;;;;;;12.02;80.69;101913.41;5113228;28;20058;-46
2022/09/01 03:25:33;;;;;;;7.38;3.25;;;;;;;12.12;80.17;101912.97;5113972;28;20028;-44
2022/09/01 03:28:00;;;;;;;4.97;3.00;;;;;;;12.22;79.66;101903.88;5114537;28;20035;-43
2022/09/01 03:30:28;;;;;;;5.78;3.10;;;;;;;12.18;79.69;101907.16;5114136;28;20471;-44
2022/09/01 03:32:54;;;;;;;5.63;2.72;;;;;;;12.24;79.22;101909.09;5113793;28;20470;-44
2022/09/01 03:35:21;;;;;;;4.00;2.72;;;;;;;12.15;79.89;101910.50;5114085;28;20035;-43
2022/09/01 03:37:46;;;;;;;5.32;2.90;;;;;;;12.17;79.62;101906.28;5113434;28;20102;-44
2022/09/01 03:40:14;;;;;;;6.63;3.00;;;;;;;12.30;78.90;101914.50;5113982;28;20119;-44
2022/09/01 03:42:40;;;;;;;6.38;3.00;;;;;;;12.31;78.82;101916.28;5114233;28;20094;-43
2022/09/01 03:45:08;;;;;;;4.40;2.80;;;;;;;12.39;78.62;101909.69;5113181;28;20534;-45
2022/09/01 03:47:39;;;;;;;5.75;2.88;;;;;;;12.35;78.25;101913.84;5114079;28;20047;-46
2022/09/01 03:50:19;;;;;;;7.82;3.10;;;;;;;12.35;78.74;101907.81;5113966;28;20036;-44
2022/09/01 03:52:48;;;;;;;6.20;3.22;;;;;;;12.39;77.89;101908.81;5113781;27;20065;-43
2022/09/01 03:55:22;;;;;;;5.65;3.13;;;;;;;12.46;78.16;101913.41;5113947;28;20023;-44
2022/09/01 03:57:51;;;;;;;7.18;2.92;;;;;;;12.42;77.94;101914.09;5113866;28;20024;-44
2022/09/01 04:00:21;;;;;;;5.07;2.92;;;;;;;12.45;77.78;101912.53;5113128;28;20054;-47
2022/09/01 04:02:49;;;;;;;6.78;2.60;;;;;;;12.43;77.40;101916.75;5113789;28;20035;-45
2022/09/01 04:05:18;;;;;;;4.05;2.63;;;;;;;12.43;77.52;101911.56;5113359;28;20484;-43
2022/09/01 04:07:45;;;;;;;9.10;2.97;;;;;;;12.42;77.36;101906.34;5113324;28;20027;-43
2022/09/01 04:10:11;;;;;;;8.15;3.10;;;;;;;12.44;76.99;101907.31;5113646;28;20030;-47
2022/09/01 04:12:37;;;;;;;5.28;3.00;;;;;;;12.43;76.97;101901.22;5113551;28;20027;-46
2022/09/01 04:15:03;;;;;;;5.18;2.60;;;;;;;12.38;77.02;101902.75;5113069;28;20069;-45
2022/09/01 04:20:14;;;;;;;4.90;2.83;;;;;;;12.36;77.15;101904.41;5112980;28;20456;-43
2022/09/01 04:22:39;;;;;;;6.35;2.70;;;;;;;12.33;77.14;101901.69;5113553;28;20036;-46
2022/09/01 04:25:05;;;;;;;5.45;3.22;;;;;;;12.26;77.41;101907.47;5113398;28;20099;-45
2022/09/01 04:27:30;;;;;;;7.75;3.17;;;;;;;12.28;77.20;101911.00;5112565;28;20035;-44
2022/09/01 04:29:56;;;;;;;7.38;3.08;;;;;;;12.29;77.28;101910.16;5113274;28;20020;-46
2022/09/01 04:32:22;;;;;;;5.50;3.03;;;;;;;12.23;77.15;101910.81;5113320;28;20082;-45
2022/09/01 04:34:48;;;;;;;4.40;2.65;;;;;;;12.23;77.34;101909.94;5112681;28;20024;-44
2022/09/01 04:37:17;;;;;;;7.47;2.80;;;;;;;12.25;76.93;101911.75;5113199;28;20027;-45
2022/09/01 04:39:48;;;;;;;5.38;2.30;;;;;;;12.15;77.30;101917.38;5112921;28;20453;-43
2022/09/01 04:42:15;;;;;;;6.68;2.97;;;;;;;12.24;77.08;101909.09;5112476;28;20024;-44
2022/09/01 04:44:42;;;;;;;5.03;2.90;;;;;;;12.18;77.05;101910.59;5113166;28;20081;-44
2022/09/01 04:47:09;;;;;;;4.57;2.47;;;;;;;12.18;76.80;101910.59;5112642;28;20538;-43
2022/09/01 04:49:36;;;;;;;8.38;3.10;;;;;;;12.12;77.15;101915.56;5112731;28;20080;-43
2022/09/01 04:52:02;;;;;;;5.40;3.00;;;;;;;12.12;77.02;101910.38;5113120;28;20020;-44
2022/09/01 04:54:27;;;;;;;4.90;2.72;;;;;;;12.07;77.13;101916.16;5112870;28;20111;-44
2022/09/01 04:56:53;;;;;;;7.03;3.17;;;;;;;11.99;77.78;101910.69;5112522;28;20123;-43
2022/09/01 04:59:22;;;;;;;7.63;3.38;;;;;;;12.05;77.90;101912.66;5113056;28;20020;-44
2022/09/01 05:01:49;;;;;;;5.53;3.13;;;;;;;11.93;78.34;101919.06;5113033;28;20028;-43
2022/09/01 05:04:16;;;;;;;5.97;2.90;;;;;;;11.88;78.37;101911.91;5112490;28;20012;-45
2022/09/01 05:06:44;;;;;;;5.85;3.25;;;;;;;11.88;78.08;101910.22;5112922;28;20423;-43
2022/09/01 05:09:11;;;;;;;6.68;2.85;;;;;;;11.94;77.56;101914.75;5112029;28;20467;-43
2022/09/01 05:11:38;;;;;;;7.60;3.30;;;;;;;11.92;77.88;101917.28;5112985;28;20077;-45
2022/09/01 05:14:05;;;;;;;7.70;3.03;;;;;;;11.83;78.29;101909.16;5113124;28;20032;-43
2022/09/01 05:16:32;;;;;;;5.97;3.00;;;;;;;11.85;78.56;101913.56;5112045;28;20459;-43
2022/09/01 05:19:00;;;;;;;4.93;3.28;;;;;;;11.84;77.90;101914.38;5112886;28;20473;-43
2022/09/01 05:21:28;;;;;;;;;;;;;;;11.96;76.42;101914.03;5113324;28;20020;-47
2022/09/01 05:23:56;;;;;;;11.05;3.35;;;;;;;11.94;77.98;101914.75;5112144;28;19915;-43
2022/09/01 05:26:24;;;;;;;;;;;;;;;11.98;76.21;101919.25;5113240;28;20063;-43
2022/09/01 05:28:54;;;;;;;11.57;3.35;;;;;;;11.88;78.57;101917.97;5112869;28;19922;-43
2022/09/01 05:31:23;;;;;;;5.70;3.00;;;;;;;11.84;78.60;101924.72;5112135;28;20047;-43
2022/09/01 05:33:50;;;;;;;4.95;3.22;;;;;;;11.99;78.04;101919.34;5112978;28;20020;-46
2022/09/01 05:36:18;;;;;;;7.43;3.40;;;;;;;12.04;78.20;101922.09;5112257;28;20031;-44
2022/09/01 05:38:46;;;;;;;7.82;3.38;;;;;;;12.15;77.11;101927.72;5112019;28;20386;-44
2022/09/01 05:41:16;;;;;;;5.68;3.20;;;;;;;12.16;77.15;101922.59;5112362;28;20474;-45
2022/09/01 05:43:45;;;;;;;9.00;3.55;;;;;;;12.22;76.88;101934.00;5112654;28;20034;-45
2022/09/01 05:46:10;;;;;;;9.15;3.10;;;;;;;12.18;76.98;101927.84;5112291;28;20095;-45
2022/09/01 05:48:38;;;;;;;9.02;3.40;;;;;;;12.17;76.58;101924.38;5116249;28;20110;-43
2022/09/01 05:51:06;;;;;;;6.82;3.20;;;;;;;12.17;76.55;101929.53;5115780;28;20110;-43
2022/09/01 05:53:32;;;;;;;7.07;3.15;;;;;;;12.23;76.75;101934.06;5115898;28;20027;-43
2022/09/01 05:55:59;;;;;;;8.10;3.00;;;;;;;12.21;77.08;101925.34;5116424;28;20170;-46
2022/09/01 05:58:26;;;;;;;6.88;3.13;;;;;;;12.29;76.75;101934.31;5115274;28;20034;-45
2022/09/01 06:00:54;;;;;;;6.13;3.55;;;;;;;12.33;76.14;101935.31;5116316;28;20015;-44
2022/09/01 06:03:21;;;;;;;;;;;;;;;12.40;75.43;101932.16;5116271;28;20029;-44
2022/09/01 06:05:51;;;;;;;12.18;3.40;;;;;;;12.51;76.13;101930.88;5115219;28;19911;-43
2022/09/01 06:08:22;;;;;;;10.60;3.22;;;;;;;12.61;75.45;101932.09;5115895;28;20035;-43
2022/09/01 06:10:49;;;;;;;12.55;3.83;;;;;;;12.69;75.32;101932.38;5115748;28;20493;-44
2022/09/01 06:13:16;;;;;;;10.70;3.25;;;;;;;12.82;74.54;101937.22;5115275;28;20031;-42
2022/09/01 06:15:43;;;;;;;6.97;3.10;;;;;;;12.90;74.92;101934.94;5115967;28;20106;-44
2022/09/01 06:18:11;;;;;;;6.50;2.90;;;;;;;13.00;74.59;101941.31;5115460;28;20027;-45
2022/09/01 06:20:45;;;;;;;8.27;3.05;;;;;;;13.14;74.70;101939.22;5115375;28;20022;-45
2022/09/01 06:23:13;;;;;;;7.90;3.10;;;;;;;13.28;73.34;101937.16;5115620;28;20059;-44
2022/09/01 06:25:41;;;;;;;7.63;3.10;;;;;;;13.42;72.95;101941.16;5115330;28;20479;-43
2022/09/01 06:28:07;;;;;;;7.72;3.30;;;;;;;13.57;71.84;101930.44;5115292;28;20062;-43
2022/09/01 06:30:35;;;;;;;8.23;3.25;;;;;;;13.70;71.62;101931.75;5115338;28;20501;-47
2022/09/01 06:33:01;;;;;;;7.95;2.65;;;;;;;13.87;71.04;101939.22;5115302;28;20023;-43
2022/09/01 06:35:28;;;;;;;9.80;3.42;;;;;;;13.97;70.24;101936.13;5114984;28;20030;-44
2022/09/01 06:37:55;;;;;;;7.13;2.78;;;;;;;14.08;70.03;101945.09;5115621;28;20031;-43
2022/09/01 06:40:24;;;;;;;9.82;2.85;;;;;;;14.19;69.86;101935.09;5114737;27;20046;-43
2022/09/01 06:42:51;;;;;;;8.73;2.80;;;;;;;14.30;69.85;101945.78;5114579;28;20491;-45
2022/09/01 06:45:20;;;;;;;14.00;3.08;;;;;;;14.36;68.95;101942.50;5114971;27;20034;-43
2022/09/01 06:47:47;;;;;;;10.25;2.90;;;;;;;14.45;69.28;101935.91;5114295;28;20455;-47
2022/09/01 06:50:15;;;;;;;9.30;2.83;;;;;;;14.53;68.89;101943.94;5115260;28;20051;-43
2022/09/01 06:52:41;;;;;;;9.35;3.28;;;;;;;14.66;68.96;101945.22;5115318;28;20032;-43
2022/09/01 06:55:11;;;;;;;8.85;3.38;;;;;;;14.72;68.53;101948.00;5114344;28;20026;-43
2022/09/01 06:57:51;;;;;;;5.80;3.03;;;;;;;14.79;67.49;101952.53;5114816;28;20454;-45
2022/09/01 07:00:19;;;;;;;8.50;3.00;;;;;;;14.87;66.65;101954.47;5114737;28;20056;-44
2022/09/01 07:02:46;;;;;;;7.10;2.75;;;;;;;14.98;67.25;101946.16;5114478;28;20069;-43
2022/09/01 07:05:17;;;;;;;7.93;3.13;;;;;;;15.04;66.06;101952.38;5114770;28;20031;-43
2022/09/01 07:07:50;;;;;;;7.70;2.72;;;;;;;15.12;65.81;101956.97;5114593;28;20031;-43
2022/09/01 07:10:19;;;;;;;7.20;3.10;;;;;;;15.19;65.07;101952.81;5113881;28;20062;-44
2022/09/01 07:12:45;;;;;;;12.45;2.78;;;;;;;15.48;65.68;101961.41;5114941;28;20083;-44
2022/09/01 07:15:15;;;;;;;7.75;3.30;;;;;;;15.57;64.94;101960.78;5114485;28;20028;-44
2022/09/01 07:17:50;;;;;;;7.80;3.15;;;;;;;15.63;64.64;101960.06;5114193;28;20399;-43
2022/09/01 07:20:16;;;;;;;8.27;3.15;;;;;;;15.71;64.81;101955.97;5114488;28;20027;-43
2022/09/01 07:22:41;;;;;;;9.27;3.53;;;;;;;16.00;63.45;101955.84;5113706;28;20024;-46
2022/09/01 07:25:11;;;;;;;7.68;3.08;;;;;;;16.06;63.65;101956.00;5114552;28;20027;-44
2022/09/01 07:27:36;;;;;;;9.50;3.58;;;;;;;16.18;63.38;101962.34;5114388;28;20038;-43
2022/09/01 07:30:02;;;;;;;8.50;3.47;;;;;;;16.28;62.93;101961.72;5113571;28;20027;-43
2022/09/01 07:32:29;;;;;;;6.50;3.30;;;;;;;16.35;63.12;101954.97;5114305;28;20457;-43
2022/09/01 07:34:55;;;;;;;10.00;3.30;;;;;;;16.60;62.20;101959.88;5114077;28;20073;-44
2022/09/01 07:37:21;;;;;;;8.95;3.72;;;;;;;16.65;61.62;101949.56;5113440;28;20031;-45
2022/09/01 07:39:46;;;;;;;5.95;3.55;;;;;;;16.74;62.09;101956.69;5114209;28;20115;-44
2022/09/01 07:42:14;;;;;;;8.10;3.65;;;;;;;16.84;63.13;101953.44;5113941;28;20499;-43
2022/09/01 07:44:40;;;;;;;10.30;3.40;;;;;;;16.99;61.49;101952.94;5113360;28;20394;-44
2022/09/01 07:47:08;;;;;;;8.05;3.10;;;;;;;17.07;61.32;101956.56;5113938;28;20028;-42
2022/09/01 07:49:36;;;;;;;8.23;3.53;;;;;;;17.18;60.85;101961.97;5113745;28;20043;-44
2022/09/01 07:52:03;;;;;;;9.77;3.20;;;;;;;17.25;60.31;101955.19;5113109;28;20526;-46
2022/09/01 07:54:29;;;;;;;6.93;3.27;;;;;;;17.40;59.79;101962.41;5114093;28;20114;-42
2022/09/01 07:56:54;;;;;;;6.85;3.30;;;;;;;17.52;59.94;101951.31;5113806;28;20058;-43
2022/09/01 07:59:20;;;;;;;8.20;3.03;;;;;;;17.63;59.72;101955.00;5113086;28;20027;-43
2022/09/01 08:01:46;;;;;;;6.53;3.38;;;;;;;17.75;59.65;101959.56;5114012;28;20035;-43
2022/09/01 08:04:11;;;;;;;6.65;2.50;;;;;;;17.98;59.27;101960.00;5113418;28;20028;-46
2022/09/01 08:06:37;;;;;;;5.55;3.22;;;;;;;18.06;58.97;101961.03;5112956;28;20032;-47
2022/09/01 08:09:06;;;;;;;7.65;3.47;;;;;;;18.28;57.24;101950.91;5113330;28;20020;-44
2022/09/01 08:11:32;;;;;;;8.43;4.65;;;;;;;18.55;56.84;101960.00;5113464;28;20091;-44
2022/09/01 08:13:58;;;;;;;5.75;2.90;;;;;;;18.67;56.09;101952.34;5113223;28;20445;-44
2022/09/01 08:16:28;;;;;;;7.57;3.55;;;;;;;18.76;56.86;101954.22;5113335;28;20035;-44
2022/09/01 08:18:55;;;;;;;5.25;3.03;;;;;;;18.87;56.22;101959.56;5113238;28;20028;-43
2022/09/01 08:21:22;;;;;;;8.18;3.25;;;;;;;18.98;56.85;101963.22;5113325;28;20099;-44
2022/09/01 08:23:49;;;;;;;6.97;3.10;;;;;;;19.07;55.73;101959.88;5113469;28;20470;-42
2022/09/01 08:26:16;;;;;;;8.82;3.15;;;;;;;19.22;56.25;101956.53;5112640;28;20115;-48
2022/09/01 08:28:42;;;;;;;8.48;3.22;;;;;;;19.37;55.52;101959.31;5113301;28;20530;-43
2022/09/01 08:31:09;;;;;;;9.75;2.65;;;;;;;19.56;56.06;101956.88;5113013;28;20020;-42
2022/09/01 08:33:36;;;;;;;7.57;2.80;;;;;;;19.77;54.72;101957.97;5112608;28;20383;-43
2022/09/01 08:36:02;;;;;;;8.68;2.75;;;;;;;19.97;52.37;101963.41;5113402;28;20020;-44
2022/09/01 08:38:27;;;;;;;7.80;2.83;;;;;;;19.96;52.01;101957.31;5113150;28;20077;-43
2022/09/01 08:40:56;;;;;;;7.88;2.63;;;;;;;20.20;52.35;101960.97;5112741;28;20079;-43
2022/09/01 08:43:30;;;;;;;10.77;3.00;;;;;;;20.23;52.18;101961.88;5112862;28;20047;-44
2022/09/01 08:46:01;;;;;;;8.70;3.15;;;;;;;20.27;51.33;101965.41;5113029;28;20471;-44
2022/09/01 08:48:45;;;;;;;6.95;2.67;;;;;;;20.34;51.85;101959.31;5112407;28;20391;-43
2022/09/01 08:51:25;;;;;;;5.55;2.53;;;;;;;20.53;51.32;101965.56;5113124;28;20027;-43
2022/09/01 08:54:16;;;;;;;7.28;2.85;;;;;;;20.66;51.26;101963.03;5112978;28;20036;-45
2022/09/01 08:56:42;;;;;;;5.35;2.55;;;;;;;20.97;50.32;101966.69;5113257;28;20020;-47
2022/09/01 08:59:09;;;;;;;5.03;2.58;;;;;;;21.03;49.16;101965.81;5112947;28;20016;-49
2022/09/01 09:01:44;;;;;;;7.53;2.50;;;;;;;21.17;49.37;101971.13;5112618;28;20031;-47
2022/09/01 09:04:19;;;;;;;8.85;2.40;;;;;;;21.21;49.69;101963.28;5112959;28;20081;-45
2022/09/01 09:06:51;;;;;;;8.80;2.47;;;;;;;21.14;48.63;101963.28;5112740;28;20039;-49
2022/09/01 09:09:17;;;;;;;5.20;2.30;;;;;;;21.15;48.83;101954.50;5112239;28;20414;-44
2022/09/01 09:11:51;;;;;;;7.30;2.40;;;;;;;21.18;47.89;101950.16;5113116;28;20023;-45
2022/09/01 09:14:48;;;;;;;4.75;2.58;;;;;;;21.49;48.45;101952.84;5112490;28;20031;-45
2022/09/01 09:17:18;;;;;;;7.55;2.72;;;;;;;21.54;46.65;101955.50;5103714;28;20036;-44
2022/09/01 09:19:44;;;;;;;7.82;3.05;;;;;;;21.71;46.85;101951.16;5113249;28;20023;-44
2022/09/01 09:22:13;;;;;;;9.02;2.70;;;;;;;22.03;46.54;101958.16;5114483;28;20367;-46
2022/09/01 09:24:49;;;;;;;7.53;2.83;;;;;;;22.10;45.96;101947.66;5116461;28;20031;-43
2022/09/01 09:27:22;;;;;;;10.32;2.78;;;;;;;22.26;46.18;101949.41;5116382;28;20475;-45
2022/09/01 09:29:57;;;;;;;6.82;2.08;;;;;;;22.23;44.26;101949.41;5116248;28;20102;-44
2022/09/01 09:32:41;;;;;;;6.32;2.13;;;;;;;22.36;44.24;101945.91;5116718;28;20104;-43
2022/09/01 09:35:17;;;;;;;6.65;2.17;;;;;;;22.55;44.11;101945.88;5116349;28;20028;-44
2022/09/01 09:37:42;;;;;;;7.90;2.23;;;;;;;22.81;43.23;101937.03;5116110;28;20027;-48
2022/09/01 09:40:10;;;;;;;6.90;2.03;;;;;;;23.44;42.78;101923.56;5116224;28;20405;-48
2022/09/01 09:42:41;;;;;;;6.28;1.90;;;;;;;24.02;42.12;101926.63;5116184;28;20475;-45
2022/09/01 09:45:27;;;;;;;6.13;2.35;;;;;;;24.07;42.34;101929.22;5115847;28;20019;-47
2022/09/01 09:47:54;;;;;;;8.77;2.00;;;;;;;24.48;39.15;101930.56;5116528;28;20035;-46
2022/09/01 09:50:29;;;;;;;5.78;1.70;;;;;;;24.79;38.44;101919.66;5115940;28;20035;-46
2022/09/01 09:53:25;;;;;;;9.75;2.30;;;;;;;24.79;39.50;101919.66;5116292;28;20039;-46
2022/09/01 09:56:03;;;;;;;7.32;1.63;;;;;;;25.85;37.04;101904.03;5116105;28;20039;-44
2022/09/01 09:58:38;;;;;;;4.72;1.58;;;;;;;26.31;36.12;101912.03;5115617;28;20030;-46
2022/09/01 10:01:15;;;;;;;5.72;1.63;;;;;;;27.74;34.45;101906.22;5116010;28;20563;-44
2022/09/01 10:03:45;;;;;;;6.80;1.77;;;;;;;27.28;32.35;101910.84;5116229;28;20031;-44
2022/09/01 10:06:15;;;;;;;4.93;1.77;;;;;;;28.05;30.79;101912.53;5115528;28;20020;-48
2022/09/01 10:08:44;;;;;;;5.03;1.30;;;;;;;27.68;30.19;101921.41;5115900;28;20030;-45
2022/09/01 10:11:24;;;;;;;3.63;1.38;;;;;;;28.16;29.60;101913.13;5115546;28;20038;-46
2022/09/01 10:13:51;;;;;;;4.22;1.30;;;;;;;27.81;29.57;101911.34;5115661;28;20019;-46
2022/09/01 10:16:30;;;;;;;5.38;1.45;;;;;;;27.48;30.49;101914.81;5115615;28;20042;-47
2022/09/01 10:19:00;;;;;;;4.25;1.10;;;;;;;27.22;28.76;101908.34;5115390;28;20016;-47
2022/09/01 10:21:34;;;;;;;2.97;1.38;;;;;;;27.97;29.46;101902.09;5115783;28;20020;-48
2022/09/01 10:24:12;;;;;;;3.00;1.30;;;;;;;27.88;28.17;101897.91;5115442;28;20019;-49
2022/09/01 10:26:41;;;;;;;2.85;1.10;;;;;;;28.05;27.72;101908.09;5115114;28;20110;-47
2022/09/01 10:29:13;;;;;;;5.20;1.52;;;;;;;28.11;28.04;101904.41;5115555;28;20028;-47
2022/09/01 10:31:40;;;;;;;3.08;1.15;;;;;;;29.00;27.66;101903.63;5115223;28;20032;-48
2022/09/01 10:34:12;;;;;;;5.00;1.15;;;;;;;29.27;27.49;101892.16;5114489;28;20052;-49
2022/09/01 10:36:41;;;;;;;1.88;0.82;;;;;;;30.62;24.31;101899.91;5115471;28;20040;-49
2022/09/01 10:39:16;;;;;;;6.57;1.05;;;;;;;30.49;25.35;101902.16;5115074;28;20015;-49
2022/09/01 10:41:49;;;;;;;3.90;1.20;;;;;;;30.52;24.40;101899.41;5114993;28;20031;-49
2022/09/01 10:44:21;;;;;;;3.60;1.27;;;;;;;30.90;23.55;101895.28;5115100;28;20448;-46
2022/09/01 10:46:48;;;;;;;6.22;1.20;;;;;;;30.32;23.84;101893.94;5114680;28;20026;-49
2022/09/01 10:49:45;;;;;;;6.05;1.10;;;;;;;30.45;24.76;101895.19;5115071;28;20028;-48
2022/09/01 10:52:40;;;;;;;6.07;1.42;;;;;;;29.71;26.79;101895.16;5114795;28;20077;-49
2022/09/01 10:55:13;;;;;;;7.18;1.35;;;;;;;30.39;24.03;101898.06;5114298;28;20023;-49
2022/09/01 10:58:20;;;;;;;6.07;1.15;;;;;;;31.30;24.53;101893.72;5115225;28;20046;-45
2022/09/01 11:00:51;;;;;;;4.45;1.20;;;;;;;32.00;22.94;101895.16;5114032;28;20040;-49
2022/09/01 11:03:17;;;;;;;3.75;1.15;;;;;;;31.90;22.09;101890.31;5114829;28;20024;-49
2022/09/01 11:05:52;;;;;;;4.10;1.10;;;;;;;32.11;22.64;101892.03;5114726;28;20073;-48
2022/09/01 11:08:42;;;;;;;3.95;0.98;;;;;;;32.85;22.47;101887.81;5113968;28;20038;-49
2022/09/01 11:11:42;;;;;;;4.18;0.85;;;;;;;33.46;22.18;101888.41;5114663;27;20434;-49
2022/09/01 11:14:46;;;;;;;4.82;1.10;;;;;;;32.83;20.85;101887.88;5061329;28;20584;-48
2022/09/01 11:17:35;;;;;;;5.97;1.40;;;;;;;31.96;22.56;101892.72;5063445;28;20046;-47
2022/09/01 11:20:10;;;;;;;4.43;1.27;;;;;;;31.73;21.66;101881.25;5114388;28;20391;-43
2022/09/01 11:22:38;;;;;;;4.05;1.05;;;;;;;31.83;21.50;101887.91;5114167;28;20019;-45
2022/09/01 11:25:32;;;;;;;3.70;1.10;;;;;;;32.26;21.44;101878.97;5114625;28;20106;-48
2022/09/01 11:28:00;;;;;;;2.95;1.27;;;;;;;32.41;20.18;101872.03;5114268;28;20035;-47
2022/09/01 11:30:53;;;;;;;5.22;1.00;;;;;;;33.44;21.31;101875.13;5113602;28;20486;-44
2022/09/01 11:33:22;;;;;;;3.25;1.00;;;;;;;33.47;19.29;101866.94;5098801;27;20122;-45
2022/09/01 11:36:00;;;;;;;4.57;0.90;;;;;;;33.27;20.15;101869.75;5114075;28;20028;-44
2022/09/01 11:38:27;;;;;;;2.53;0.85;;;;;;;33.90;18.29;101863.84;5102785;28;20027;-43
2022/09/01 11:40:56;;;;;;;3.83;1.02;;;;;;;34.23;18.32;101860.31;5093450;28;20052;-48
2022/09/01 11:43:24;;;;;;;2.92;1.05;;;;;;;33.60;18.13;101860.97;5092908;28;20430;-44
2022/09/01 11:46:20;;;;;;;6.60;1.10;;;;;;;33.10;19.04;101860.75;5093316;28;20055;-44